createdAt,value
2022-09-20T00:01:28.552Z,13.50
2022-09-20T00:03:59.240Z,17.20
2022-09-20T00:06:29.949Z,15.80
2022-09-20T00:08:59.692Z,18.60
2022-09-20T00:11:31.003Z,22.70
2022-09-20T00:14:00.889Z,17.60
2022-09-20T00:16:36.426Z,16.50
2022-09-20T00:19:06.010Z,17.10
2022-09-20T00:21:36.520Z,17.40
2022-09-20T00:24:06.119Z,15.70
2022-09-20T00:26:34.174Z,17.30
2022-09-20T00:29:02.212Z,15.10
2022-09-20T00:31:30.086Z,17.10
2022-09-20T00:34:18.029Z,15.20
2022-09-20T00:36:46.209Z,16.20
2022-09-20T00:39:15.762Z,16.10
2022-09-20T00:41:44.294Z,15.50
2022-09-20T00:44:40.242Z,14.20
2022-09-20T00:47:14.587Z,14.90
2022-09-20T00:49:42.524Z,16.30
2022-09-20T00:52:10.680Z,16.90
2022-09-20T00:54:38.557Z,13.80
2022-09-20T00:57:06.500Z,15.10
2022-09-20T00:59:40.248Z,16.00
2022-09-20T01:02:17.120Z,15.60
2022-09-20T01:04:47.430Z,14.80
2022-09-20T01:07:19.234Z,12.10
2022-09-20T01:09:47.281Z,13.40
2022-09-20T01:12:18.711Z,15.50
2022-09-20T01:14:49.041Z,13.40
2022-09-20T01:17:19.638Z,15.90
2022-09-20T01:20:15.889Z,16.60
2022-09-20T01:23:22.808Z,16.60
2022-09-20T01:26:15.620Z,13.80
2022-09-20T01:28:49.364Z,13.30
2022-09-20T01:31:25.666Z,15.40
2022-09-20T01:33:58.046Z,12.90
2022-09-20T01:36:38.276Z,14.60
2022-09-20T01:39:16.669Z,14.30
2022-09-20T01:41:51.857Z,14.10
2022-09-20T01:45:04.880Z,13.40
2022-09-20T01:47:38.360Z,16.90
2022-09-20T01:50:19.816Z,12.10
2022-09-20T01:52:56.574Z,15.70
2022-09-20T01:55:24.513Z,13.20
2022-09-20T01:58:03.251Z,14.40
2022-09-20T02:00:54.677Z,15.20
2022-09-20T02:04:00.691Z,13.80
2022-09-20T02:06:59.769Z,13.40
2022-09-20T02:10:07.790Z,14.10
2022-09-20T02:12:53.460Z,14.90
2022-09-20T02:16:03.451Z,12.70
2022-09-20T02:18:57.322Z,15.70
2022-09-20T02:21:52.805Z,12.60
2022-09-20T02:24:37.828Z,15.10
2022-09-20T02:27:25.927Z,14.00
2022-09-20T02:30:24.421Z,14.40
2022-09-20T02:33:11.715Z,15.80
2022-09-20T02:35:55.356Z,15.10
2022-09-20T02:38:35.327Z,15.80
2022-09-20T02:41:27.368Z,13.80
2022-09-20T02:44:09.194Z,13.90
2022-09-20T02:47:08.366Z,14.50
2022-09-20T02:49:55.417Z,14.40
2022-09-20T02:52:36.697Z,16.10
2022-09-20T02:55:18.111Z,12.90
2022-09-20T02:57:50.854Z,13.70
2022-09-20T03:00:29.027Z,13.50
2022-09-20T03:03:22.191Z,15.30
2022-09-20T03:06:27.753Z,15.60
2022-09-20T03:09:28.358Z,12.40
2022-09-20T03:12:08.677Z,14.50
2022-09-20T03:14:53.014Z,13.90
2022-09-20T03:17:42.569Z,14.60
2022-09-20T03:20:32.655Z,12.10
2022-09-20T03:23:26.051Z,13.20
2022-09-20T03:26:04.852Z,14.70
2022-09-20T03:29:09.230Z,13.80
2022-09-20T03:31:47.930Z,14.70
2022-09-20T03:34:27.573Z,16.20
2022-09-20T03:37:10.455Z,12.60
2022-09-20T03:39:51.245Z,14.70
2022-09-20T03:42:46.334Z,16.20
2022-09-20T03:45:30.736Z,12.00
2022-09-20T03:48:17.548Z,15.70
2022-09-20T03:51:08.415Z,11.60
2022-09-20T03:54:19.805Z,12.60
2022-09-20T03:56:53.323Z,12.60
2022-09-20T03:59:58.410Z,11.60
2022-09-20T04:02:45.512Z,12.30
2022-09-20T04:05:24.714Z,11.80
2022-09-20T04:08:01.450Z,11.80
2022-09-20T04:10:51.685Z,14.80
2022-09-20T04:13:48.104Z,11.00
2022-09-20T04:16:37.436Z,15.60
2022-09-20T04:19:35.338Z,14.40
2022-09-20T04:22:04.083Z,14.90
2022-09-20T04:24:43.298Z,16.30
2022-09-20T04:27:14.450Z,14.90
2022-09-20T04:30:05.595Z,15.90
2022-09-20T04:32:41.921Z,13.60
2022-09-20T04:35:37.743Z,16.40
2022-09-20T04:38:12.443Z,15.80
2022-09-20T04:41:08.649Z,17.10
2022-09-20T04:44:11.558Z,16.80
2022-09-20T04:47:06.291Z,16.40
2022-09-20T04:49:57.906Z,17.30
2022-09-20T04:53:14.922Z,16.20
2022-09-20T04:56:02.074Z,14.70
2022-09-20T04:58:36.454Z,16.30
2022-09-20T05:01:19.791Z,15.00
2022-09-20T05:04:08.934Z,17.00
2022-09-20T05:07:14.797Z,15.70
2022-09-20T05:10:16.750Z,16.10
2022-09-20T05:13:05.458Z,14.00
2022-09-20T05:15:38.817Z,15.60
2022-09-20T05:18:37.583Z,15.50
2022-09-20T05:21:56.388Z,16.30
2022-09-20T05:24:49.733Z,15.40
2022-09-20T05:27:30.111Z,16.80
2022-09-20T05:30:07.412Z,16.20
2022-09-20T05:33:02.298Z,15.50
2022-09-20T05:35:54.641Z,15.80
2022-09-20T05:38:32.459Z,19.10
2022-09-20T05:41:24.174Z,18.20
2022-09-20T05:44:22.903Z,18.80
2022-09-20T05:47:16.004Z,18.60
2022-09-20T05:50:00.839Z,19.10
2022-09-20T05:52:47.161Z,16.40
2022-09-20T05:55:35.909Z,18.80
2022-09-20T05:58:32.393Z,17.60
2022-09-20T06:01:23.524Z,17.30
2022-09-20T06:04:05.797Z,16.40
2022-09-20T06:06:55.992Z,19.80
2022-09-20T06:09:46.142Z,21.00
2022-09-20T06:12:36.611Z,20.00
2022-09-20T06:15:26.568Z,20.00
2022-09-20T06:18:26.200Z,19.20
2022-09-20T06:21:24.428Z,17.10
2022-09-20T06:23:58.703Z,21.00
2022-09-20T06:26:33.905Z,17.90
2022-09-20T06:29:06.843Z,17.90
2022-09-20T06:31:34.772Z,18.40
2022-09-20T06:34:13.586Z,19.40
2022-09-20T06:37:09.021Z,19.00
2022-09-20T06:40:01.536Z,22.30
2022-09-20T06:42:29.757Z,20.50
2022-09-20T06:44:57.522Z,25.90
2022-09-20T06:47:26.310Z,20.00
2022-09-20T06:49:54.505Z,19.50
2022-09-20T06:52:23.166Z,18.10
2022-09-20T06:54:54.318Z,20.40
2022-09-20T06:57:40.678Z,19.70
2022-09-20T07:00:11.788Z,18.60
2022-09-20T07:02:40.217Z,18.40
2022-09-20T07:05:15.294Z,19.50
2022-09-20T07:07:44.289Z,20.80
2022-09-20T07:10:12.316Z,21.10
2022-09-20T07:12:40.155Z,19.10
2022-09-20T07:15:09.013Z,21.30
2022-09-20T07:17:36.951Z,22.10
2022-09-20T07:20:05.048Z,21.10
2022-09-20T07:22:33.241Z,21.60
2022-09-20T07:25:02.497Z,20.30
2022-09-20T07:27:30.404Z,23.20
2022-09-20T07:29:58.370Z,21.60
2022-09-20T07:32:27.161Z,21.70
2022-09-20T07:34:55.398Z,24.40
2022-09-20T07:37:23.316Z,22.50
2022-09-20T07:39:51.205Z,24.20
2022-09-20T07:42:19.017Z,21.50
2022-09-20T07:44:47.762Z,19.40
2022-09-20T07:47:15.621Z,19.60
2022-09-20T07:49:43.685Z,19.30
2022-09-20T07:52:11.623Z,18.80
2022-09-20T07:54:40.019Z,21.00
2022-09-20T07:57:07.987Z,19.20
2022-09-20T07:59:35.873Z,18.50
2022-09-20T08:02:04.758Z,16.60
2022-09-20T08:04:32.706Z,17.20
2022-09-20T08:07:01.623Z,16.30
2022-09-20T08:09:29.470Z,21.90
2022-09-20T08:11:58.187Z,18.40
2022-09-20T08:14:26.232Z,16.90
2022-09-20T08:16:56.396Z,19.10
2022-09-20T08:19:24.485Z,16.80
2022-09-20T08:21:54.112Z,15.30
2022-09-20T08:24:21.927Z,19.40
2022-09-20T08:26:49.777Z,17.80
2022-09-20T08:29:17.829Z,15.70
2022-09-20T08:31:46.601Z,19.90
2022-09-20T08:34:16.461Z,21.50
2022-09-20T08:36:52.070Z,18.60
2022-09-20T08:42:22.287Z,17.00
2022-09-20T08:44:58.180Z,21.60
2022-09-20T08:47:35.947Z,17.90
2022-09-20T08:50:10.293Z,17.90
2022-09-20T08:52:40.819Z,17.30
2022-09-20T08:55:41.909Z,16.80
2022-09-20T08:58:13.622Z,14.40
2022-09-20T09:00:46.574Z,14.20
2022-09-20T09:03:17.708Z,12.60
2022-09-20T09:05:52.916Z,15.60
2022-09-20T09:08:25.580Z,14.90
2022-09-20T09:10:58.938Z,16.10
2022-09-20T09:13:33.006Z,12.30
2022-09-20T09:16:06.891Z,13.20
2022-09-20T09:18:40.587Z,13.70
2022-09-20T09:21:16.092Z,12.70
2022-09-20T09:23:51.533Z,11.90
2022-09-20T09:26:22.690Z,13.00
2022-09-20T09:29:17.678Z,13.10
2022-09-20T09:31:51.884Z,17.60
2022-09-20T09:34:29.143Z,18.40
2022-09-20T09:36:58.620Z,14.20
2022-09-20T09:39:30.267Z,14.00
2022-09-20T09:42:01.511Z,13.80
2022-09-20T09:44:34.042Z,11.20
2022-09-20T09:47:02.433Z,12.60
2022-09-20T09:49:36.725Z,11.80
2022-09-20T09:52:24.870Z,11.90
2022-09-20T09:55:03.667Z,13.20
2022-09-20T09:57:59.002Z,12.70
2022-09-20T10:00:27.423Z,13.00
2022-09-20T10:03:25.156Z,11.10
2022-09-20T10:06:05.076Z,11.00
2022-09-20T10:08:49.824Z,11.10
2022-09-20T10:11:26.619Z,10.20
2022-09-20T10:13:57.815Z,12.00
2022-09-20T10:16:46.994Z,10.30
2022-09-20T10:19:36.483Z,11.90
2022-09-20T10:22:34.025Z,10.80
2022-09-20T10:25:24.621Z,9.40
2022-09-20T10:28:13.637Z,8.90
2022-09-20T10:31:03.098Z,9.20
2022-09-20T10:33:54.271Z,11.00
2022-09-20T10:36:43.897Z,10.70
2022-09-20T10:39:26.311Z,10.00
2022-09-20T10:43:14.069Z,9.90
2022-09-20T10:46:14.445Z,12.00
2022-09-20T10:48:52.615Z,10.40
2022-09-20T10:51:25.832Z,10.80
2022-09-20T10:53:59.935Z,11.00
2022-09-20T10:56:41.521Z,11.50
2022-09-20T10:59:30.312Z,9.60
2022-09-20T11:02:16.761Z,9.00
2022-09-20T11:05:19.276Z,9.20
2022-09-20T11:08:04.447Z,10.20
2022-09-20T11:10:43.232Z,9.10
2022-09-20T11:13:20.731Z,9.30
2022-09-20T11:15:59.660Z,9.50
2022-09-20T11:18:39.231Z,8.80
2022-09-20T11:21:19.456Z,8.50
2022-09-20T11:23:59.340Z,8.50
2022-09-20T11:26:38.252Z,7.60
2022-09-20T11:29:24.751Z,8.20
2022-09-20T11:31:57.223Z,8.00
2022-09-20T11:34:40.231Z,6.70
2022-09-20T11:37:09.472Z,6.60
2022-09-20T11:39:54.388Z,7.30
2022-09-20T11:42:30.596Z,6.50
2022-09-20T11:44:58.569Z,6.20
2022-09-20T11:48:00.187Z,6.50
2022-09-20T11:50:54.789Z,6.50
2022-09-20T11:53:49.648Z,7.40
2022-09-20T11:56:27.779Z,9.10
2022-09-20T11:59:01.616Z,7.70
2022-09-20T12:01:42.945Z,8.00
2022-09-20T12:04:34.734Z,6.70
2022-09-20T12:07:18.607Z,6.80
2022-09-20T12:10:11.802Z,6.40
2022-09-20T12:12:45.550Z,5.50
2022-09-20T12:15:41.856Z,5.30
2022-09-20T12:18:36.502Z,5.50
2022-09-20T12:21:06.208Z,4.90
2022-09-20T12:23:43.300Z,5.30
2022-09-20T12:26:20.999Z,5.50
2022-09-20T12:28:55.181Z,5.60
2022-09-20T12:31:26.416Z,5.40
2022-09-20T12:34:13.391Z,4.80
2022-09-20T12:36:56.464Z,6.20
2022-09-20T12:39:33.104Z,5.30
2022-09-20T12:42:04.617Z,7.20
2022-09-20T12:44:36.445Z,5.90
2022-09-20T12:47:10.313Z,4.20
2022-09-20T12:50:04.324Z,4.60
2022-09-20T12:52:51.061Z,4.80
2022-09-20T12:55:42.585Z,6.10
2022-09-20T12:58:14.535Z,5.60
2022-09-20T13:01:10.613Z,5.20
2022-09-20T13:03:47.165Z,4.80
2022-09-20T13:06:16.617Z,4.70
2022-09-20T13:08:49.506Z,5.20
2022-09-20T13:11:20.835Z,5.30
2022-09-20T13:13:56.118Z,6.10
2022-09-20T13:16:31.963Z,5.50
2022-09-20T13:19:08.020Z,5.00
2022-09-20T13:21:52.238Z,5.70
2022-09-20T13:24:23.661Z,4.30
2022-09-20T13:26:54.136Z,4.90
2022-09-20T13:29:54.378Z,4.20
2022-09-20T13:32:27.174Z,4.40
2022-09-20T13:35:10.237Z,5.10
2022-09-20T13:37:55.133Z,6.20
2022-09-20T13:40:44.995Z,5.30
2022-09-20T13:43:41.492Z,5.10
2022-09-20T13:46:17.141Z,5.00
2022-09-20T13:48:52.855Z,4.80
2022-09-20T13:51:25.674Z,5.30
2022-09-20T13:53:54.190Z,5.20
2022-09-20T13:56:27.560Z,5.60
2022-09-20T13:58:59.013Z,6.10
2022-09-20T14:01:35.866Z,6.50
2022-09-20T14:04:14.720Z,4.40
2022-09-20T14:06:43.037Z,4.70
2022-09-20T14:09:39.469Z,4.90
2022-09-20T14:12:08.385Z,5.10
2022-09-20T14:14:36.894Z,5.10
2022-09-20T14:17:09.868Z,6.10
2022-09-20T14:19:41.417Z,6.70
2022-09-20T14:22:34.372Z,4.90
2022-09-20T14:25:25.420Z,4.60
2022-09-20T14:28:28.834Z,4.20
2022-09-20T14:31:08.341Z,5.00
2022-09-20T14:33:43.656Z,10.00
2022-09-20T14:36:18.863Z,2.70
2022-09-20T14:38:50.270Z,3.20
2022-09-20T14:41:40.851Z,3.00
2022-09-20T14:44:34.130Z,2.80
2022-09-20T14:47:15.411Z,3.80
2022-09-20T14:49:44.393Z,2.50
2022-09-20T14:52:27.607Z,3.00
2022-09-20T14:55:01.286Z,3.20
2022-09-20T14:57:30.194Z,2.70
2022-09-20T14:59:58.322Z,2.90
2022-09-20T15:02:27.612Z,5.70
2022-09-20T15:05:00.332Z,6.90
2022-09-20T15:07:29.015Z,5.60
2022-09-20T15:09:57.068Z,10.10
2022-09-20T15:12:25.477Z,11.20
2022-09-20T15:14:53.263Z,10.90
2022-09-20T15:17:21.808Z,10.00
2022-09-20T15:19:50.313Z,10.50
2022-09-20T15:22:18.125Z,9.60
2022-09-20T15:24:46.556Z,8.00
2022-09-20T15:27:14.927Z,8.50
2022-09-20T15:29:42.724Z,7.50
2022-09-20T15:32:11.267Z,8.60
2022-09-20T15:34:39.300Z,9.70
2022-09-20T15:37:07.421Z,10.70
2022-09-20T15:39:35.744Z,6.80
2022-09-20T15:42:04.432Z,7.90
2022-09-20T15:44:32.947Z,6.70
2022-09-20T15:47:01.737Z,9.30
2022-09-20T15:49:43.879Z,10.90
2022-09-20T15:52:14.430Z,11.10
2022-09-20T15:54:52.198Z,9.70
2022-09-20T15:57:23.745Z,10.20
2022-09-20T15:59:56.638Z,11.70
2022-09-20T16:02:25.429Z,11.50
2022-09-20T16:04:56.759Z,8.80
2022-09-20T16:07:25.898Z,8.90
2022-09-20T16:09:57.274Z,9.10
2022-09-20T16:12:25.951Z,9.70
2022-09-20T16:14:54.195Z,8.00
2022-09-20T16:17:43.357Z,7.60
2022-09-20T16:20:11.496Z,8.00
2022-09-20T16:22:40.142Z,8.40
2022-09-20T16:25:08.766Z,10.00
2022-09-20T16:27:36.933Z,11.00
2022-09-20T16:30:05.293Z,21.60
2022-09-20T16:32:33.504Z,23.00
2022-09-20T16:35:04.180Z,11.40
2022-09-20T16:37:33.277Z,32.40
2022-09-20T16:40:01.425Z,14.00
2022-09-20T16:42:29.877Z,10.80
2022-09-20T16:44:58.908Z,9.90
2022-09-20T16:47:26.836Z,10.50
2022-09-20T16:49:55.291Z,11.90
2022-09-20T16:52:24.633Z,11.00
2022-09-20T16:54:52.506Z,9.30
2022-09-20T16:57:22.945Z,10.60
2022-09-20T16:59:51.974Z,12.20
2022-09-20T17:02:19.947Z,13.60
2022-09-20T17:04:48.048Z,12.40
2022-09-20T17:07:16.803Z,11.40
2022-09-20T17:09:44.719Z,14.30
2022-09-20T17:12:13.949Z,22.00
2022-09-20T17:14:42.156Z,32.40
2022-09-20T17:17:10.504Z,32.40
2022-09-20T17:19:41.126Z,27.10
2022-09-20T17:22:09.847Z,21.30
2022-09-20T17:24:37.703Z,19.60
2022-09-20T17:27:07.850Z,21.40
2022-09-20T17:29:40.507Z,17.00
2022-09-20T17:32:15.347Z,16.30
2022-09-20T17:34:43.738Z,12.60
2022-09-20T17:37:15.789Z,15.20
2022-09-20T17:39:43.776Z,24.30
2022-09-20T17:42:11.782Z,21.00
2022-09-20T17:44:40.059Z,22.10
2022-09-20T17:47:08.276Z,21.30
2022-09-20T17:49:38.552Z,18.20
2022-09-20T17:52:08.201Z,15.80
2022-09-20T17:54:36.227Z,20.10
2022-09-20T17:57:05.687Z,19.80
2022-09-20T17:59:34.708Z,14.40
2022-09-20T18:02:02.569Z,16.50
2022-09-20T18:04:30.609Z,16.60
2022-09-20T18:06:58.814Z,17.60
2022-09-20T18:09:27.671Z,16.20
2022-09-20T18:11:56.671Z,16.50
2022-09-20T18:14:27.970Z,19.60
2022-09-20T18:17:01.266Z,26.60
2022-09-20T18:19:40.897Z,19.10
2022-09-20T18:22:09.176Z,18.20
2022-09-20T18:24:38.391Z,18.70
2022-09-20T18:27:06.319Z,18.30
2022-09-20T18:29:37.085Z,18.80
2022-09-20T18:32:06.838Z,20.40
2022-09-20T18:34:34.816Z,22.60
2022-09-20T18:37:04.078Z,20.20
2022-09-20T18:39:33.686Z,19.80
2022-09-20T18:42:03.521Z,20.20
2022-09-20T18:44:34.573Z,20.00
2022-09-20T18:47:05.456Z,20.50
2022-09-20T18:49:33.648Z,18.30
2022-09-20T18:52:02.549Z,21.90
2022-09-20T18:54:33.367Z,20.60
2022-09-20T18:57:02.486Z,17.00
2022-09-20T18:59:30.582Z,17.40
2022-09-20T19:02:09.595Z,19.70
2022-09-20T19:04:59.120Z,15.20
2022-09-20T19:07:27.844Z,17.40
2022-09-20T19:10:20.622Z,16.00
2022-09-20T19:13:10.094Z,20.30
2022-09-20T19:16:15.766Z,18.30
2022-09-20T19:19:14.954Z,18.40
2022-09-20T19:21:56.644Z,17.50
2022-09-20T19:24:43.480Z,18.70
2022-09-20T19:27:13.334Z,17.40
2022-09-20T19:29:41.764Z,17.70
2022-09-20T19:32:17.351Z,16.10
2022-09-20T19:34:45.836Z,16.50
2022-09-20T19:37:53.794Z,17.50
2022-09-20T19:40:42.850Z,16.00
2022-09-20T19:43:23.831Z,20.50
2022-09-20T19:46:12.532Z,21.20
2022-09-20T19:48:57.255Z,23.60
2022-09-20T19:51:26.346Z,26.90
2022-09-20T19:53:55.538Z,29.20
2022-09-20T19:56:28.516Z,26.30
2022-09-20T19:58:56.795Z,23.00
2022-09-20T20:01:25.995Z,20.90
2022-09-20T20:03:54.965Z,20.10
2022-09-20T20:06:50.870Z,20.70
2022-09-20T20:09:57.358Z,18.40
2022-09-20T20:12:40.742Z,17.80
2022-09-20T20:15:51.397Z,17.30
2022-09-20T20:18:36.635Z,18.10
2022-09-20T20:21:13.870Z,18.40
2022-09-20T20:23:58.760Z,17.20
2022-09-20T20:26:28.844Z,18.40
2022-09-20T20:28:56.792Z,18.70
2022-09-20T20:31:24.639Z,21.20
2022-09-20T20:33:54.407Z,18.40
2022-09-20T20:36:22.580Z,19.30
2022-09-20T20:38:52.704Z,21.60
2022-09-20T20:41:21.817Z,25.10
2022-09-20T20:43:57.315Z,20.90
2022-09-20T20:46:26.061Z,21.40
2022-09-20T20:48:54.273Z,17.80
2022-09-20T20:51:23.036Z,18.70
2022-09-20T20:53:53.089Z,17.60
2022-09-20T20:56:30.308Z,18.30
2022-09-20T20:59:00.703Z,15.40
2022-09-20T21:01:35.011Z,18.50
2022-09-20T21:04:04.990Z,18.60
2022-09-20T21:06:35.170Z,13.40
2022-09-20T21:09:05.162Z,14.90
2022-09-20T21:11:35.954Z,13.30
2022-09-20T21:14:07.269Z,11.70
2022-09-20T21:16:37.722Z,10.80
2022-09-20T21:19:07.004Z,12.80
2022-09-20T21:21:37.203Z,11.80
2022-09-20T21:24:08.708Z,12.80
2022-09-20T21:26:39.010Z,10.60
2022-09-20T21:29:10.657Z,10.90
2022-09-20T21:31:44.168Z,11.10
2022-09-20T21:34:13.927Z,11.20
2022-09-20T21:36:44.852Z,9.60
2022-09-20T21:39:13.380Z,9.60
2022-09-20T21:41:41.748Z,11.80
2022-09-20T21:44:12.335Z,9.80
2022-09-20T21:46:42.408Z,11.70
2022-09-20T21:49:14.294Z,12.80
2022-09-20T21:51:43.284Z,11.40
2022-09-20T21:54:11.327Z,9.30
2022-09-20T21:56:40.347Z,10.50
2022-09-20T21:59:08.582Z,10.50
2022-09-20T22:01:38.851Z,9.30
2022-09-20T22:04:11.810Z,11.20
2022-09-20T22:06:42.286Z,9.80
2022-09-20T22:09:19.518Z,9.00
2022-09-20T22:11:48.832Z,10.50
2022-09-20T22:14:19.777Z,8.90
2022-09-20T22:16:49.156Z,9.00
2022-09-20T22:19:18.187Z,7.60
2022-09-20T22:21:48.278Z,10.00
2022-09-20T22:24:17.802Z,10.90
2022-09-20T22:26:50.996Z,12.60
2022-09-20T22:29:19.152Z,11.50
2022-09-20T22:31:50.211Z,11.20
2022-09-20T22:34:24.378Z,12.20
2022-09-20T22:36:52.631Z,13.20
2022-09-20T22:39:20.434Z,13.90
2022-09-20T22:41:50.921Z,12.40
2022-09-20T22:44:18.782Z,11.00
2022-09-20T22:46:46.680Z,13.60
2022-09-20T22:49:14.769Z,11.80
2022-09-20T22:51:42.789Z,11.00
2022-09-20T22:54:12.390Z,10.90
2022-09-20T22:56:44.024Z,10.30
2022-09-20T22:59:15.335Z,8.70
2022-09-20T23:01:45.881Z,10.10
2022-09-20T23:04:17.660Z,7.80
2022-09-20T23:06:55.076Z,9.30
2022-09-20T23:09:25.644Z,9.10
2022-09-20T23:11:53.451Z,9.00
2022-09-20T23:14:22.315Z,8.80
2022-09-20T23:16:50.438Z,9.00
2022-09-20T23:19:18.376Z,9.50
2022-09-20T23:21:46.419Z,10.30
2022-09-20T23:24:16.139Z,9.00
2022-09-20T23:26:44.677Z,9.40
2022-09-20T23:29:15.581Z,12.70
2022-09-20T23:31:46.458Z,8.30
2022-09-20T23:34:16.740Z,9.80
2022-09-20T23:36:45.453Z,11.30
2022-09-20T23:39:13.988Z,11.80
2022-09-20T23:41:43.951Z,9.10
2022-09-20T23:44:13.981Z,9.90
2022-09-20T23:46:41.684Z,9.30
2022-09-20T23:49:09.561Z,11.60
2022-09-20T23:51:37.799Z,11.20
2022-09-20T23:54:06.196Z,10.60
2022-09-20T23:56:34.103Z,11.00
2022-09-20T23:59:02.157Z,9.90
